Willow Run Airport
KYIP : now visible

Airfield :











YOU CAN JOIN US ON...

 
LOGIN :

Register | Disclaimer

   EN    FR    IT 

 









Legend :    VFR   Marginal VFR   IFR   Intensive IFR   Very Intensive IFR
Visi :
Ceiling :
>= 8 km
>= 3000ft
5 to 8 km
1000 to 3000 ft
1500m to 5 km
500 to 1000 ft
800 to 1500m
200 to 500 ft
< 800m
< 200 ft
Symbols :   Thunderstorms  Fog  Heavy snow  Heavy precipitations  Wind > 20 kt






- Airport Elevation : 716 ft
- IATA code : YIP


KYIP - Willow Run

CURRENT METAR :
  • 090553Z 28007KT 10SM FEW049 OVC060 12/08 A2951 RMK AO2 RAE12 SLP989 P0000 60006 T01170083 10189 20111 56034

EXPIRED METARs :
  • 090453Z 00000KT 10SM -RA BKN055 BKN070 OVC090 11/08 A2953 RMK AO2 RAE04B24 SLP996 P0001 T01110083 402330111
  • 090353Z 34007KT 10SM -RA OVC060 12/08 A2957 RMK AO2 SLP011 P0000 T01170083

TAF KYIP
Valid from the 09 at 06:00 until the 10 at 06:00 UTC


090520Z 0906/1006 32006KT P6SM SCT014 OVC050
TEMPO 0906/0908 OVC014
FM090900 34014G22KT P6SM SCT022 OVC045
FM091200 32012G20KT P6SM SCT040 BKN100
FM091600 29022G32KT P6SM BKN050
TEMPO 0919/0923 6SM SHRAPL OVC045
FM100100 27014G22KT P6SM BKN060



MET'MAP, your aeronautical weather chart ! - Copyright ORBIFLY December 2007 - Disclaimer

ORBIFLY MET'MAP TEAM :

Programming & Development : Alexandra Zaïnal
Concept & original design : Baudouin d'Aumeries
Assistance for programming : Marc-Olivier Méhu
Technical & hardware support : Manuel Goepfert

Contact : metmap@orbifly.com




SOURCES & CREDITS :

   NOAA       Earth
Advisory